Air Resources Laboratory banner image
Air Resources Laboratory web site National Oceanic and Atmospheric Administration (NOAA)

mo metar


KAIZ 211656Z AUTO 29007KT 10SM SCT016 BKN021 OVC035 23/20 A3007 RMK AO2 SLP174
 T02280200=
KCDJ 211652Z AUTO VRB03KT 21/18 A3006 RMK AO1 SLP169 T02110178=
KCGI 211653Z 17009KT 10SM CLR 24/20 A3008 RMK AO2 SLP182 T02440200=
KCOU 211654Z 24010KT 10SM FEW016 OVC029 23/18 A3005 RMK AO2 SLP168 T02280183=
KDMO 211653Z AUTO 24006KT 10SM FEW014 BKN020 OVC027 21/19 A3007 RMK AO2 SLP179
 T02110194 $=
KFAM 211656Z AUTO 18005KT 10SM FEW002 SCT014 24/21 A3008 RMK AO2 SLP180
 T02440211=
KIRK 211655Z AUTO 24008G17KT 200V270 10SM OVC023 23/18 A3004 RMK AO2 SLP170
 T02280178=
KJEF 211653Z 25007KT 10SM SCT018 SCT023 OVC032 23/19 A3004 RMK AO2 SLP160
 T02280189=
KJLN 211653Z VRB04KT 10SM BKN016 21/18 A3011 RMK AO2 SLP187 T02110178=
KMCI 211653Z 25006KT 8SM BKN010 OVC014 17/14 A3008 RMK AO2 SLP181 T01720144=
KMKC 211654Z 24007KT 10SM OVC013 18/13 A3008 RMK AO2 SLP182 T01780133=
KPOF 211653Z AUTO 16007KT 10SM SCT017 BKN026 BKN100 24/21 A3007 RMK AO2 SLP178
 T02440211=
KSET 211654Z AUTO 22006KT 10SM BKN018 OVC022 23/19 A3004 RMK AO2 SLP167
 T02280194 $=
KSGF 211652Z 23008KT 10SM SCT022 BKN027 24/18 A3008 RMK AO2 SLP174 T02390178=
KSTJ 211653Z 24005KT 10SM OVC012 17/15 A3007 RMK AO2 SLP180 T01720150=
KSTL 211651Z 29008KT 10SM SCT018 SCT090 OVC200 24/20 A3005 RMK AO2 SLP168
 T02390200=
KSUS 211654Z 24005KT 10SM BKN012 BKN018 23/20 A3004 RMK AO2 SLP166 T02330200=
KTBN 211656Z AUTO 24004KT 10SM BKN020 BKN025 OVC030 23/19 A3006 RMK AO2 SLP174
 T02320193=
KUNO 211653Z AUTO 25007KT 10SM BKN013 23/19 A3009 RMK AO2 SLP178 T02330194=
KVIH 211653Z AUTO 24009KT 10SM SCT017 SCT022 OVC028 22/19 A3007 RMK AO2 SLP174
 T02220189=